sensor_id;sensor_type;location;lat;lon;timestamp;P1;durP1;ratioP1;P2;durP2;ratioP2
76765;SDS011;65707;52.362;6.588;2024-02-04T00:00:39;36.38;;;10.70;;
76765;SDS011;65707;52.362;6.588;2024-02-04T00:03:05;14.65;;;4.25;;
76765;SDS011;65707;52.362;6.588;2024-02-04T00:05:32;18.88;;;6.47;;
76765;SDS011;65707;52.362;6.588;2024-02-04T00:07:59;15.45;;;4.82;;
76765;SDS011;65707;52.362;6.588;2024-02-04T00:10:26;12.80;;;4.43;;
76765;SDS011;65707;52.362;6.588;2024-02-04T00:12:52;11.10;;;3.47;;
76765;SDS011;65707;52.362;6.588;2024-02-04T00:15:21;11.30;;;4.32;;
76765;SDS011;65707;52.362;6.588;2024-02-04T00:17:48;14.98;;;4.00;;
76765;SDS011;65707;52.362;6.588;2024-02-04T00:20:15;12.50;;;4.20;;
76765;SDS011;65707;52.362;6.588;2024-02-04T00:22:41;13.38;;;4.30;;
76765;SDS011;65707;52.362;6.588;2024-02-04T00:25:08;14.45;;;3.95;;
76765;SDS011;65707;52.362;6.588;2024-02-04T00:27:36;12.40;;;3.95;;
76765;SDS011;65707;52.362;6.588;2024-02-04T00:30:04;12.80;;;3.97;;
76765;SDS011;65707;52.362;6.588;2024-02-04T00:32:37;17.25;;;4.32;;
76765;SDS011;65707;52.362;6.588;2024-02-04T00:35:04;12.20;;;4.00;;
76765;SDS011;65707;52.362;6.588;2024-02-04T00:37:31;12.15;;;3.83;;
76765;SDS011;65707;52.362;6.588;2024-02-04T00:39:58;14.85;;;4.20;;
76765;SDS011;65707;52.362;6.588;2024-02-04T00:42:25;14.80;;;3.85;;
76765;SDS011;65707;52.362;6.588;2024-02-04T00:44:52;13.70;;;4.20;;
76765;SDS011;65707;52.362;6.588;2024-02-04T00:47:19;11.75;;;4.22;;
76765;SDS011;65707;52.362;6.588;2024-02-04T00:49:47;13.75;;;4.72;;
76765;SDS011;65707;52.362;6.588;2024-02-04T00:52:13;13.60;;;4.80;;
76765;SDS011;65707;52.362;6.588;2024-02-04T00:54:40;18.08;;;5.38;;
76765;SDS011;65707;52.362;6.588;2024-02-04T00:57:07;19.77;;;5.03;;
76765;SDS011;65707;52.362;6.588;2024-02-04T00:59:34;16.83;;;5.50;;
76765;SDS011;65707;52.362;6.588;2024-02-04T01:02:00;20.85;;;5.63;;
76765;SDS011;65707;52.362;6.588;2024-02-04T01:04:27;22.75;;;6.22;;
76765;SDS011;65707;52.362;6.588;2024-02-04T01:06:55;17.55;;;6.45;;
76765;SDS011;65707;52.362;6.588;2024-02-04T01:09:22;15.43;;;5.45;;
76765;SDS011;65707;52.362;6.588;2024-02-04T01:11:49;15.77;;;5.55;;
76765;SDS011;65707;52.362;6.588;2024-02-04T01:14:18;20.08;;;6.07;;
76765;SDS011;65707;52.362;6.588;2024-02-04T01:16:44;17.60;;;6.30;;
76765;SDS011;65707;52.362;6.588;2024-02-04T01:19:11;18.35;;;6.03;;
76765;SDS011;65707;52.362;6.588;2024-02-04T01:21:38;53.10;;;13.93;;
76765;SDS011;65707;52.362;6.588;2024-02-04T01:24:06;15.77;;;5.57;;
76765;SDS011;65707;52.362;6.588;2024-02-04T01:26:33;15.43;;;5.85;;
76765;SDS011;65707;52.362;6.588;2024-02-04T01:28:59;16.55;;;5.68;;
76765;SDS011;65707;52.362;6.588;2024-02-04T01:31:26;16.42;;;6.20;;
76765;SDS011;65707;52.362;6.588;2024-02-04T01:33:53;17.70;;;6.40;;
76765;SDS011;65707;52.362;6.588;2024-02-04T01:36:20;18.50;;;6.55;;
76765;SDS011;65707;52.362;6.588;2024-02-04T01:38:46;16.23;;;6.22;;
76765;SDS011;65707;52.362;6.588;2024-02-04T01:41:15;19.67;;;6.88;;
76765;SDS011;65707;52.362;6.588;2024-02-04T01:43:42;14.60;;;5.55;;
76765;SDS011;65707;52.362;6.588;2024-02-04T01:46:08;15.68;;;5.80;;
76765;SDS011;65707;52.362;6.588;2024-02-04T01:48:36;16.05;;;5.07;;
76765;SDS011;65707;52.362;6.588;2024-02-04T01:51:04;15.25;;;4.85;;
76765;SDS011;65707;52.362;6.588;2024-02-04T01:53:31;15.60;;;4.30;;
76765;SDS011;65707;52.362;6.588;2024-02-04T01:56:00;13.52;;;4.60;;
76765;SDS011;65707;52.362;6.588;2024-02-04T01:58:30;11.75;;;4.13;;
76765;SDS011;65707;52.362;6.588;2024-02-04T02:00:57;11.85;;;4.20;;
76765;SDS011;65707;52.362;6.588;2024-02-04T02:03:24;12.23;;;4.13;;
76765;SDS011;65707;52.362;6.588;2024-02-04T02:05:52;11.05;;;4.97;;
76765;SDS011;65707;52.362;6.588;2024-02-04T02:08:20;11.55;;;4.18;;
76765;SDS011;65707;52.362;6.588;2024-02-04T02:10:46;15.75;;;4.35;;
76765;SDS011;65707;52.362;6.588;2024-02-04T02:13:15;12.93;;;4.43;;
76765;SDS011;65707;52.362;6.588;2024-02-04T02:15:51;9.85;;;3.67;;
76765;SDS011;65707;52.362;6.588;2024-02-04T02:18:25;9.60;;;3.72;;
76765;SDS011;65707;52.362;6.588;2024-02-04T02:21:08;12.73;;;4.15;;
76765;SDS011;65707;52.362;6.588;2024-02-04T02:23:52;11.98;;;3.95;;
76765;SDS011;65707;52.362;6.588;2024-02-04T02:26:35;12.80;;;3.95;;
76765;SDS011;65707;52.362;6.588;2024-02-04T02:29:04;11.57;;;4.10;;
76765;SDS011;65707;52.362;6.588;2024-02-04T02:31:33;13.55;;;3.97;;
76765;SDS011;65707;52.362;6.588;2024-02-04T02:34:00;8.93;;;3.40;;
76765;SDS011;65707;52.362;6.588;2024-02-04T02:36:28;14.52;;;4.18;;
76765;SDS011;65707;52.362;6.588;2024-02-04T02:39:01;13.38;;;3.85;;
76765;SDS011;65707;52.362;6.588;2024-02-04T02:41:37;9.38;;;4.00;;
76765;SDS011;65707;52.362;6.588;2024-02-04T02:44:09;12.02;;;3.90;;
76765;SDS011;65707;52.362;6.588;2024-02-04T02:46:37;11.60;;;4.40;;
76765;SDS011;65707;52.362;6.588;2024-02-04T02:49:05;12.93;;;4.00;;
76765;SDS011;65707;52.362;6.588;2024-02-04T02:51:32;14.40;;;3.83;;
76765;SDS011;65707;52.362;6.588;2024-02-04T02:53:58;10.45;;;3.70;;
76765;SDS011;65707;52.362;6.588;2024-02-04T02:56:25;11.07;;;3.53;;
76765;SDS011;65707;52.362;6.588;2024-02-04T02:58:53;8.23;;;3.13;;
76765;SDS011;65707;52.362;6.588;2024-02-04T03:01:19;12.02;;;3.53;;
76765;SDS011;65707;52.362;6.588;2024-02-04T03:03:45;10.13;;;3.83;;
76765;SDS011;65707;52.362;6.588;2024-02-04T03:06:12;10.32;;;3.90;;
76765;SDS011;65707;52.362;6.588;2024-02-04T03:08:39;11.20;;;3.60;;
76765;SDS011;65707;52.362;6.588;2024-02-04T03:11:05;11.30;;;3.92;;
76765;SDS011;65707;52.362;6.588;2024-02-04T03:13:32;11.13;;;3.97;;
76765;SDS011;65707;52.362;6.588;2024-02-04T03:16:00;13.27;;;4.53;;
76765;SDS011;65707;52.362;6.588;2024-02-04T03:18:27;12.45;;;3.72;;
76765;SDS011;65707;52.362;6.588;2024-02-04T03:20:53;11.80;;;4.18;;
76765;SDS011;65707;52.362;6.588;2024-02-04T03:23:20;10.32;;;3.58;;
76765;SDS011;65707;52.362;6.588;2024-02-04T03:25:47;12.93;;;4.00;;
76765;SDS011;65707;52.362;6.588;2024-02-04T03:28:13;11.07;;;3.83;;
76765;SDS011;65707;52.362;6.588;2024-02-04T03:30:40;14.05;;;3.78;;
76765;SDS011;65707;52.362;6.588;2024-02-04T03:33:08;14.85;;;4.30;;
76765;SDS011;65707;52.362;6.588;2024-02-04T03:35:35;13.02;;;4.25;;
76765;SDS011;65707;52.362;6.588;2024-02-04T03:38:02;16.85;;;5.28;;
76765;SDS011;65707;52.362;6.588;2024-02-04T03:40:29;11.55;;;4.32;;
76765;SDS011;65707;52.362;6.588;2024-02-04T03:42:56;11.00;;;3.75;;
76765;SDS011;65707;52.362;6.588;2024-02-04T03:45:22;9.82;;;3.42;;
76765;SDS011;65707;52.362;6.588;2024-02-04T03:47:49;12.82;;;3.67;;
76765;SDS011;65707;52.362;6.588;2024-02-04T03:50:17;11.48;;;3.55;;
76765;SDS011;65707;52.362;6.588;2024-02-04T03:52:44;12.10;;;4.10;;
76765;SDS011;65707;52.362;6.588;2024-02-04T03:55:11;13.18;;;3.78;;
76765;SDS011;65707;52.362;6.588;2024-02-04T03:57:37;10.75;;;3.35;;
76765;SDS011;65707;52.362;6.588;2024-02-04T04:00:05;11.32;;;4.28;;
76765;SDS011;65707;52.362;6.588;2024-02-04T04:02:35;13.48;;;4.20;;
76765;SDS011;65707;52.362;6.588;2024-02-04T04:05:02;14.02;;;4.50;;
76765;SDS011;65707;52.362;6.588;2024-02-04T04:07:31;10.85;;;3.60;;
76765;SDS011;65707;52.362;6.588;2024-02-04T04:09:58;12.75;;;3.45;;
76765;SDS011;65707;52.362;6.588;2024-02-04T04:12:25;12.68;;;3.20;;
76765;SDS011;65707;52.362;6.588;2024-02-04T04:14:51;14.95;;;3.38;;
76765;SDS011;65707;52.362;6.588;2024-02-04T04:17:18;12.75;;;3.42;;
76765;SDS011;65707;52.362;6.588;2024-02-04T04:19:45;15.23;;;3.53;;
76765;SDS011;65707;52.362;6.588;2024-02-04T04:22:11;10.90;;;3.10;;
76765;SDS011;65707;52.362;6.588;2024-02-04T04:24:39;15.10;;;3.42;;
76765;SDS011;65707;52.362;6.588;2024-02-04T04:27:06;9.48;;;3.10;;
76765;SDS011;65707;52.362;6.588;2024-02-04T04:29:32;13.07;;;3.00;;
76765;SDS011;65707;52.362;6.588;2024-02-04T04:31:59;10.52;;;2.80;;
76765;SDS011;65707;52.362;6.588;2024-02-04T04:34:26;10.98;;;3.03;;
76765;SDS011;65707;52.362;6.588;2024-02-04T04:36:52;9.45;;;2.47;;
76765;SDS011;65707;52.362;6.588;2024-02-04T04:39:19;14.13;;;3.00;;
76765;SDS011;65707;52.362;6.588;2024-02-04T04:41:47;12.82;;;2.38;;
76765;SDS011;65707;52.362;6.588;2024-02-04T04:44:14;11.80;;;2.83;;
76765;SDS011;65707;52.362;6.588;2024-02-04T04:46:40;15.13;;;2.30;;
76765;SDS011;65707;52.362;6.588;2024-02-04T04:49:07;11.40;;;2.03;;
76765;SDS011;65707;52.362;6.588;2024-02-04T04:51:34;8.95;;;1.90;;
76765;SDS011;65707;52.362;6.588;2024-02-04T04:54:00;9.30;;;1.80;;
76765;SDS011;65707;52.362;6.588;2024-02-04T04:56:27;8.55;;;1.50;;
76765;SDS011;65707;52.362;6.588;2024-02-04T04:58:55;11.10;;;2.05;;
76765;SDS011;65707;52.362;6.588;2024-02-04T05:01:22;8.30;;;1.30;;
76765;SDS011;65707;52.362;6.588;2024-02-04T05:03:49;8.35;;;1.50;;
76765;SDS011;65707;52.362;6.588;2024-02-04T05:06:15;9.13;;;1.92;;
76765;SDS011;65707;52.362;6.588;2024-02-04T05:08:42;10.30;;;1.80;;
76765;SDS011;65707;52.362;6.588;2024-02-04T05:11:09;8.57;;;1.27;;
76765;SDS011;65707;52.362;6.588;2024-02-04T05:13:38;11.82;;;2.08;;
76765;SDS011;65707;52.362;6.588;2024-02-04T05:16:06;8.77;;;1.50;;
76765;SDS011;65707;52.362;6.588;2024-02-04T05:18:33;9.13;;;1.52;;
76765;SDS011;65707;52.362;6.588;2024-02-04T05:21:00;9.10;;;1.70;;
76765;SDS011;65707;52.362;6.588;2024-02-04T05:23:27;10.00;;;1.58;;
76765;SDS011;65707;52.362;6.588;2024-02-04T05:25:54;6.43;;;1.20;;
76765;SDS011;65707;52.362;6.588;2024-02-04T05:28:20;10.57;;;1.63;;
76765;SDS011;65707;52.362;6.588;2024-02-04T05:30:47;8.63;;;1.20;;
76765;SDS011;65707;52.362;6.588;2024-02-04T05:33:15;7.30;;;1.20;;
76765;SDS011;65707;52.362;6.588;2024-02-04T05:35:42;8.07;;;1.40;;
76765;SDS011;65707;52.362;6.588;2024-02-04T05:38:08;7.57;;;1.25;;
76765;SDS011;65707;52.362;6.588;2024-02-04T05:40:35;9.38;;;1.42;;
76765;SDS011;65707;52.362;6.588;2024-02-04T05:43:02;7.05;;;1.10;;
76765;SDS011;65707;52.362;6.588;2024-02-04T05:45:31;8.13;;;1.30;;
76765;SDS011;65707;52.362;6.588;2024-02-04T05:47:58;8.60;;;1.23;;
76765;SDS011;65707;52.362;6.588;2024-02-04T05:50:26;7.70;;;1.55;;
76765;SDS011;65707;52.362;6.588;2024-02-04T05:52:53;8.15;;;1.30;;
76765;SDS011;65707;52.362;6.588;2024-02-04T05:55:20;7.95;;;1.60;;
76765;SDS011;65707;52.362;6.588;2024-02-04T05:57:46;5.78;;;1.05;;
76765;SDS011;65707;52.362;6.588;2024-02-04T06:00:13;5.68;;;1.23;;
76765;SDS011;65707;52.362;6.588;2024-02-04T06:02:41;12.85;;;1.73;;
76765;SDS011;65707;52.362;6.588;2024-02-04T06:05:08;8.80;;;1.30;;
76765;SDS011;65707;52.362;6.588;2024-02-04T06:07:37;10.52;;;1.65;;
76765;SDS011;65707;52.362;6.588;2024-02-04T06:10:05;6.03;;;1.10;;
76765;SDS011;65707;52.362;6.588;2024-02-04T06:12:35;7.78;;;1.50;;
76765;SDS011;65707;52.362;6.588;2024-02-04T06:15:02;8.13;;;1.20;;
76765;SDS011;65707;52.362;6.588;2024-02-04T06:17:30;7.00;;;1.00;;
76765;SDS011;65707;52.362;6.588;2024-02-04T06:19:57;8.20;;;1.33;;
76765;SDS011;65707;52.362;6.588;2024-02-04T06:22:25;10.75;;;1.48;;
76765;SDS011;65707;52.362;6.588;2024-02-04T06:24:53;7.70;;;1.10;;
76765;SDS011;65707;52.362;6.588;2024-02-04T06:27:20;10.40;;;1.70;;
76765;SDS011;65707;52.362;6.588;2024-02-04T06:29:47;8.98;;;1.48;;
76765;SDS011;65707;52.362;6.588;2024-02-04T06:32:13;9.95;;;2.55;;
76765;SDS011;65707;52.362;6.588;2024-02-04T06:34:40;6.13;;;0.98;;
76765;SDS011;65707;52.362;6.588;2024-02-04T06:37:07;10.95;;;1.27;;
76765;SDS011;65707;52.362;6.588;2024-02-04T06:39:33;10.38;;;1.60;;
76765;SDS011;65707;52.362;6.588;2024-02-04T06:42:01;7.78;;;1.30;;
76765;SDS011;65707;52.362;6.588;2024-02-04T06:44:28;11.68;;;1.40;;
76765;SDS011;65707;52.362;6.588;2024-02-04T06:46:55;7.78;;;1.35;;
76765;SDS011;65707;52.362;6.588;2024-02-04T06:49:22;7.38;;;1.20;;
76765;SDS011;65707;52.362;6.588;2024-02-04T06:51:49;8.70;;;1.25;;
76765;SDS011;65707;52.362;6.588;2024-02-04T06:54:17;11.07;;;1.52;;
76765;SDS011;65707;52.362;6.588;2024-02-04T06:56:44;7.55;;;1.40;;
76765;SDS011;65707;52.362;6.588;2024-02-04T06:59:12;9.23;;;1.42;;
76765;SDS011;65707;52.362;6.588;2024-02-04T07:01:39;8.52;;;1.25;;
76765;SDS011;65707;52.362;6.588;2024-02-04T07:04:05;10.00;;;1.45;;
76765;SDS011;65707;52.362;6.588;2024-02-04T07:06:32;8.65;;;1.15;;
76765;SDS011;65707;52.362;6.588;2024-02-04T07:08:59;8.98;;;1.23;;
76765;SDS011;65707;52.362;6.588;2024-02-04T07:11:25;8.60;;;1.40;;
76765;SDS011;65707;52.362;6.588;2024-02-04T07:13:52;8.57;;;1.20;;
76765;SDS011;65707;52.362;6.588;2024-02-04T07:16:25;7.75;;;1.10;;
76765;SDS011;65707;52.362;6.588;2024-02-04T07:18:52;7.15;;;1.33;;
76765;SDS011;65707;52.362;6.588;2024-02-04T07:21:20;8.82;;;1.55;;
76765;SDS011;65707;52.362;6.588;2024-02-04T07:23:47;9.27;;;1.17;;
76765;SDS011;65707;52.362;6.588;2024-02-04T07:26:13;12.52;;;1.80;;
76765;SDS011;65707;52.362;6.588;2024-02-04T07:28:40;12.25;;;2.03;;
76765;SDS011;65707;52.362;6.588;2024-02-04T07:31:07;9.98;;;1.23;;
76765;SDS011;65707;52.362;6.588;2024-02-04T07:33:35;7.15;;;1.30;;
76765;SDS011;65707;52.362;6.588;2024-02-04T07:36:01;14.93;;;2.17;;
76765;SDS011;65707;52.362;6.588;2024-02-04T07:38:29;16.17;;;2.17;;
76765;SDS011;65707;52.362;6.588;2024-02-04T07:40:55;13.05;;;1.63;;
76765;SDS011;65707;52.362;6.588;2024-02-04T07:43:24;9.32;;;1.67;;
76765;SDS011;65707;52.362;6.588;2024-02-04T07:45:51;9.55;;;1.40;;
76765;SDS011;65707;52.362;6.588;2024-02-04T07:48:18;10.38;;;1.52;;
76765;SDS011;65707;52.362;6.588;2024-02-04T07:50:46;12.32;;;1.80;;
76765;SDS011;65707;52.362;6.588;2024-02-04T07:53:13;9.43;;;1.40;;
76765;SDS011;65707;52.362;6.588;2024-02-04T07:55:40;9.90;;;1.65;;
76765;SDS011;65707;52.362;6.588;2024-02-04T07:58:06;8.07;;;2.22;;
76765;SDS011;65707;52.362;6.588;2024-02-04T08:00:33;12.25;;;1.27;;
76765;SDS011;65707;52.362;6.588;2024-02-04T08:03:00;13.55;;;1.73;;
76765;SDS011;65707;52.362;6.588;2024-02-04T08:05:27;9.30;;;1.60;;
76765;SDS011;65707;52.362;6.588;2024-02-04T08:07:55;8.63;;;1.70;;
76765;SDS011;65707;52.362;6.588;2024-02-04T08:10:22;7.55;;;1.30;;
76765;SDS011;65707;52.362;6.588;2024-02-04T08:12:48;19.65;;;1.92;;
76765;SDS011;65707;52.362;6.588;2024-02-04T08:15:16;10.98;;;1.80;;
76765;SDS011;65707;52.362;6.588;2024-02-04T08:17:43;8.43;;;1.40;;
76765;SDS011;65707;52.362;6.588;2024-02-04T08:20:09;11.38;;;2.10;;
76765;SDS011;65707;52.362;6.588;2024-02-04T08:22:37;8.82;;;1.60;;
76765;SDS011;65707;52.362;6.588;2024-02-04T08:25:05;8.43;;;1.48;;
76765;SDS011;65707;52.362;6.588;2024-02-04T08:27:32;6.55;;;1.40;;
76765;SDS011;65707;52.362;6.588;2024-02-04T08:29:59;8.93;;;1.42;;
76765;SDS011;65707;52.362;6.588;2024-02-04T08:32:26;7.40;;;1.35;;
76765;SDS011;65707;52.362;6.588;2024-02-04T08:34:52;7.43;;;1.50;;
76765;SDS011;65707;52.362;6.588;2024-02-04T08:37:19;8.75;;;1.80;;
76765;SDS011;65707;52.362;6.588;2024-02-04T08:39:46;8.15;;;1.50;;
76765;SDS011;65707;52.362;6.588;2024-02-04T08:42:14;7.50;;;1.40;;
76765;SDS011;65707;52.362;6.588;2024-02-04T08:44:41;11.05;;;1.60;;
76765;SDS011;65707;52.362;6.588;2024-02-04T08:47:08;6.93;;;1.10;;
76765;SDS011;65707;52.362;6.588;2024-02-04T08:49:37;8.57;;;1.35;;
76765;SDS011;65707;52.362;6.588;2024-02-04T08:52:04;4.93;;;1.10;;
76765;SDS011;65707;52.362;6.588;2024-02-04T08:54:31;9.68;;;1.50;;
76765;SDS011;65707;52.362;6.588;2024-02-04T08:56:58;7.32;;;1.50;;
76765;SDS011;65707;52.362;6.588;2024-02-04T08:59:26;10.93;;;1.63;;
76765;SDS011;65707;52.362;6.588;2024-02-04T09:01:53;6.35;;;1.13;;
76765;SDS011;65707;52.362;6.588;2024-02-04T09:04:19;8.25;;;1.42;;
76765;SDS011;65707;52.362;6.588;2024-02-04T09:06:46;5.68;;;1.30;;
76765;SDS011;65707;52.362;6.588;2024-02-04T09:09:13;5.28;;;1.20;;
76765;SDS011;65707;52.362;6.588;2024-02-04T09:11:40;7.03;;;1.30;;
76765;SDS011;65707;52.362;6.588;2024-02-04T09:14:06;8.63;;;1.30;;
76765;SDS011;65707;52.362;6.588;2024-02-04T09:16:34;7.28;;;1.20;;
76765;SDS011;65707;52.362;6.588;2024-02-04T09:19:04;7.93;;;2.08;;
76765;SDS011;65707;52.362;6.588;2024-02-04T09:21:31;7.22;;;1.40;;
76765;SDS011;65707;52.362;6.588;2024-02-04T09:23:58;7.88;;;1.52;;
76765;SDS011;65707;52.362;6.588;2024-02-04T09:26:25;6.95;;;1.33;;
76765;SDS011;65707;52.362;6.588;2024-02-04T09:28:52;9.15;;;1.73;;
76765;SDS011;65707;52.362;6.588;2024-02-04T09:31:18;8.15;;;1.30;;
76765;SDS011;65707;52.362;6.588;2024-02-04T09:33:46;7.78;;;1.30;;
76765;SDS011;65707;52.362;6.588;2024-02-04T09:36:13;9.18;;;1.92;;
76765;SDS011;65707;52.362;6.588;2024-02-04T09:38:40;6.25;;;1.50;;
76765;SDS011;65707;52.362;6.588;2024-02-04T09:41:07;9.57;;;1.98;;
76765;SDS011;65707;52.362;6.588;2024-02-04T09:43:34;8.82;;;1.85;;
76765;SDS011;65707;52.362;6.588;2024-02-04T09:46:02;8.07;;;1.95;;
76765;SDS011;65707;52.362;6.588;2024-02-04T09:48:30;7.43;;;1.90;;
76765;SDS011;65707;52.362;6.588;2024-02-04T09:53:30;10.02;;;2.25;;
76765;SDS011;65707;52.362;6.588;2024-02-04T09:56:00;8.48;;;2.78;;
76765;SDS011;65707;52.362;6.588;2024-02-04T09:58:29;9.77;;;2.67;;
76765;SDS011;65707;52.362;6.588;2024-02-04T10:00:55;11.13;;;3.20;;
76765;SDS011;65707;52.362;6.588;2024-02-04T10:03:23;7.45;;;2.80;;
76765;SDS011;65707;52.362;6.588;2024-02-04T10:05:50;11.68;;;2.47;;
76765;SDS011;65707;52.362;6.588;2024-02-04T10:08:19;8.23;;;2.53;;
76765;SDS011;65707;52.362;6.588;2024-02-04T10:10:46;9.32;;;2.67;;
76765;SDS011;65707;52.362;6.588;2024-02-04T10:13:14;10.38;;;2.83;;
76765;SDS011;65707;52.362;6.588;2024-02-04T10:15:40;10.43;;;2.72;;
76765;SDS011;65707;52.362;6.588;2024-02-04T10:18:07;8.57;;;2.53;;
76765;SDS011;65707;52.362;6.588;2024-02-04T10:20:34;9.13;;;2.78;;
76765;SDS011;65707;52.362;6.588;2024-02-04T10:23:01;8.25;;;2.75;;
76765;SDS011;65707;52.362;6.588;2024-02-04T10:25:30;8.88;;;2.60;;
76765;SDS011;65707;52.362;6.588;2024-02-04T10:27:57;8.88;;;2.40;;
76765;SDS011;65707;52.362;6.588;2024-02-04T10:30:24;7.88;;;2.20;;
76765;SDS011;65707;52.362;6.588;2024-02-04T10:32:51;9.40;;;2.47;;
76765;SDS011;65707;52.362;6.588;2024-02-04T10:35:19;10.73;;;3.10;;
76765;SDS011;65707;52.362;6.588;2024-02-04T10:37:48;10.70;;;2.47;;
76765;SDS011;65707;52.362;6.588;2024-02-04T10:40:15;8.88;;;2.28;;
76765;SDS011;65707;52.362;6.588;2024-02-04T10:42:43;8.45;;;2.38;;
76765;SDS011;65707;52.362;6.588;2024-02-04T10:45:10;10.18;;;2.97;;
76765;SDS011;65707;52.362;6.588;2024-02-04T10:47:39;7.18;;;2.17;;
76765;SDS011;65707;52.362;6.588;2024-02-04T10:50:07;8.32;;;2.05;;
76765;SDS011;65707;52.362;6.588;2024-02-04T10:52:35;9.13;;;2.30;;
76765;SDS011;65707;52.362;6.588;2024-02-04T10:55:05;8.70;;;2.28;;
76765;SDS011;65707;52.362;6.588;2024-02-04T10:57:35;6.28;;;2.03;;
76765;SDS011;65707;52.362;6.588;2024-02-04T11:00:05;7.10;;;2.05;;
76765;SDS011;65707;52.362;6.588;2024-02-04T11:02:36;7.80;;;1.98;;
76765;SDS011;65707;52.362;6.588;2024-02-04T11:05:05;7.03;;;2.10;;
76765;SDS011;65707;52.362;6.588;2024-02-04T11:07:34;7.45;;;1.80;;
76765;SDS011;65707;52.362;6.588;2024-02-04T11:10:01;7.30;;;1.52;;
76765;SDS011;65707;52.362;6.588;2024-02-04T11:12:29;6.55;;;1.80;;
76765;SDS011;65707;52.362;6.588;2024-02-04T11:15:00;7.80;;;1.92;;
76765;SDS011;65707;52.362;6.588;2024-02-04T11:17:42;7.55;;;1.58;;
76765;SDS011;65707;52.362;6.588;2024-02-04T11:20:38;6.15;;;2.00;;
76765;SDS011;65707;52.362;6.588;2024-02-04T11:23:31;7.95;;;1.52;;
76765;SDS011;65707;52.362;6.588;2024-02-04T11:26:11;7.57;;;1.65;;
76765;SDS011;65707;52.362;6.588;2024-02-04T11:28:40;7.32;;;1.52;;
76765;SDS011;65707;52.362;6.588;2024-02-04T11:31:14;7.03;;;1.35;;
76765;SDS011;65707;52.362;6.588;2024-02-04T11:33:44;5.03;;;1.27;;
76765;SDS011;65707;52.362;6.588;2024-02-04T11:36:12;7.63;;;1.40;;
76765;SDS011;65707;52.362;6.588;2024-02-04T11:38:43;4.78;;;1.08;;
76765;SDS011;65707;52.362;6.588;2024-02-04T11:41:20;5.35;;;1.10;;
76765;SDS011;65707;52.362;6.588;2024-02-04T11:43:51;5.55;;;1.00;;
76765;SDS011;65707;52.362;6.588;2024-02-04T11:46:21;3.38;;;0.80;;
76765;SDS011;65707;52.362;6.588;2024-02-04T11:48:51;5.72;;;1.00;;
76765;SDS011;65707;52.362;6.588;2024-02-04T11:51:21;4.38;;;1.00;;
76765;SDS011;65707;52.362;6.588;2024-02-04T11:53:49;4.85;;;0.80;;
76765;SDS011;65707;52.362;6.588;2024-02-04T11:56:16;3.90;;;0.82;;
76765;SDS011;65707;52.362;6.588;2024-02-04T11:58:44;5.35;;;1.00;;
76765;SDS011;65707;52.362;6.588;2024-02-04T12:01:11;6.05;;;1.00;;
76765;SDS011;65707;52.362;6.588;2024-02-04T12:03:39;4.85;;;0.88;;
76765;SDS011;65707;52.362;6.588;2024-02-04T12:06:06;5.47;;;1.25;;
76765;SDS011;65707;52.362;6.588;2024-02-04T12:08:35;4.22;;;0.80;;
76765;SDS011;65707;52.362;6.588;2024-02-04T12:11:05;6.22;;;0.85;;
76765;SDS011;65707;52.362;6.588;2024-02-04T12:13:32;6.43;;;1.15;;
76765;SDS011;65707;52.362;6.588;2024-02-04T12:16:03;5.63;;;1.08;;
76765;SDS011;65707;52.362;6.588;2024-02-04T12:18:33;3.55;;;0.93;;
76765;SDS011;65707;52.362;6.588;2024-02-04T12:21:01;5.60;;;0.90;;
76765;SDS011;65707;52.362;6.588;2024-02-04T12:23:29;5.43;;;0.90;;
76765;SDS011;65707;52.362;6.588;2024-02-04T12:25:55;4.57;;;0.75;;
76765;SDS011;65707;52.362;6.588;2024-02-04T12:28:22;3.97;;;1.00;;
76765;SDS011;65707;52.362;6.588;2024-02-04T12:30:52;4.95;;;0.82;;
76765;SDS011;65707;52.362;6.588;2024-02-04T12:33:20;6.05;;;0.75;;
76765;SDS011;65707;52.362;6.588;2024-02-04T12:35:49;4.63;;;0.98;;
76765;SDS011;65707;52.362;6.588;2024-02-04T12:38:18;6.30;;;1.10;;
76765;SDS011;65707;52.362;6.588;2024-02-04T12:40:45;4.38;;;0.77;;
76765;SDS011;65707;52.362;6.588;2024-02-04T12:43:11;7.03;;;0.90;;
76765;SDS011;65707;52.362;6.588;2024-02-04T12:45:38;4.80;;;0.95;;
76765;SDS011;65707;52.362;6.588;2024-02-04T12:48:05;4.80;;;0.90;;
76765;SDS011;65707;52.362;6.588;2024-02-04T12:50:36;5.95;;;1.25;;
76765;SDS011;65707;52.362;6.588;2024-02-04T12:53:04;5.43;;;1.10;;
76765;SDS011;65707;52.362;6.588;2024-02-04T12:55:34;4.75;;;1.00;;
76765;SDS011;65707;52.362;6.588;2024-02-04T12:58:03;4.70;;;0.93;;
76765;SDS011;65707;52.362;6.588;2024-02-04T13:00:31;6.78;;;1.20;;
76765;SDS011;65707;52.362;6.588;2024-02-04T13:02:58;5.43;;;0.80;;
76765;SDS011;65707;52.362;6.588;2024-02-04T13:05:25;5.22;;;1.13;;
76765;SDS011;65707;52.362;6.588;2024-02-04T13:13:05;4.85;;;0.90;;
76765;SDS011;65707;52.362;6.588;2024-02-04T13:15:35;4.85;;;1.00;;
76765;SDS011;65707;52.362;6.588;2024-02-04T13:18:04;5.28;;;0.80;;
76765;SDS011;65707;52.362;6.588;2024-02-04T13:20:31;7.05;;;1.17;;
76765;SDS011;65707;52.362;6.588;2024-02-04T13:22:58;4.05;;;0.90;;
76765;SDS011;65707;52.362;6.588;2024-02-04T13:25:28;4.57;;;0.80;;
76765;SDS011;65707;52.362;6.588;2024-02-04T13:27:55;3.85;;;1.00;;
76765;SDS011;65707;52.362;6.588;2024-02-04T13:30:24;3.08;;;0.65;;
76765;SDS011;65707;52.362;6.588;2024-02-04T13:32:51;4.05;;;0.88;;
76765;SDS011;65707;52.362;6.588;2024-02-04T13:35:18;3.72;;;0.90;;
76765;SDS011;65707;52.362;6.588;2024-02-04T13:37:46;3.40;;;0.70;;
76765;SDS011;65707;52.362;6.588;2024-02-04T13:40:16;3.53;;;0.82;;
76765;SDS011;65707;52.362;6.588;2024-02-04T13:42:44;4.50;;;0.70;;
76765;SDS011;65707;52.362;6.588;2024-02-04T13:45:11;4.28;;;1.00;;
76765;SDS011;65707;52.362;6.588;2024-02-04T13:47:40;4.82;;;0.82;;
76765;SDS011;65707;52.362;6.588;2024-02-04T13:50:08;2.53;;;0.65;;
76765;SDS011;65707;52.362;6.588;2024-02-04T13:52:37;3.85;;;0.80;;
76765;SDS011;65707;52.362;6.588;2024-02-04T13:55:05;4.60;;;0.70;;
76765;SDS011;65707;52.362;6.588;2024-02-04T13:57:33;3.83;;;0.90;;
76765;SDS011;65707;52.362;6.588;2024-02-04T14:00:00;4.70;;;0.90;;
76765;SDS011;65707;52.362;6.588;2024-02-04T14:02:29;5.05;;;0.90;;
76765;SDS011;65707;52.362;6.588;2024-02-04T14:04:58;2.78;;;0.63;;
76765;SDS011;65707;52.362;6.588;2024-02-04T14:07:25;2.90;;;0.60;;
76765;SDS011;65707;52.362;6.588;2024-02-04T14:09:53;2.75;;;0.75;;
76765;SDS011;65707;52.362;6.588;2024-02-04T14:12:18;3.95;;;0.80;;
76765;SDS011;65707;52.362;6.588;2024-02-04T14:14:45;3.67;;;0.80;;
76765;SDS011;65707;52.362;6.588;2024-02-04T14:17:12;2.92;;;0.77;;
76765;SDS011;65707;52.362;6.588;2024-02-04T14:19:38;3.15;;;0.80;;
76765;SDS011;65707;52.362;6.588;2024-02-04T14:22:07;2.78;;;0.60;;
76765;SDS011;65707;52.362;6.588;2024-02-04T14:24:33;3.15;;;0.80;;
76765;SDS011;65707;52.362;6.588;2024-02-04T14:27:00;2.90;;;0.70;;
76765;SDS011;65707;52.362;6.588;2024-02-04T14:29:27;3.50;;;0.85;;
76765;SDS011;65707;52.362;6.588;2024-02-04T14:31:54;3.30;;;0.73;;
76765;SDS011;65707;52.362;6.588;2024-02-04T14:34:22;3.45;;;0.90;;
76765;SDS011;65707;52.362;6.588;2024-02-04T14:36:50;3.85;;;0.90;;
76765;SDS011;65707;52.362;6.588;2024-02-04T14:39:18;3.58;;;0.80;;
76765;SDS011;65707;52.362;6.588;2024-02-04T14:41:45;4.07;;;1.05;;
76765;SDS011;65707;52.362;6.588;2024-02-04T14:44:11;3.63;;;0.90;;
76765;SDS011;65707;52.362;6.588;2024-02-04T14:46:38;14.05;;;4.82;;
76765;SDS011;65707;52.362;6.588;2024-02-04T14:49:05;18.58;;;6.00;;
76765;SDS011;65707;52.362;6.588;2024-02-04T14:51:32;4.50;;;1.02;;
76765;SDS011;65707;52.362;6.588;2024-02-04T14:54:01;5.75;;;1.00;;